createdAt,value
2017-11-12T00:00:01.243Z,930.05
2017-11-12T00:01:01.240Z,930.14
2017-11-12T00:02:01.238Z,930.13
2017-11-12T00:03:01.235Z,930.09
2017-11-12T00:04:01.237Z,930.11
2017-11-12T00:05:01.230Z,930.10
2017-11-12T00:06:01.278Z,930.09
2017-11-12T00:07:01.224Z,930.08
2017-11-12T00:08:01.223Z,930.08
2017-11-12T00:09:01.220Z,930.06
2017-11-12T00:10:01.218Z,930.08
2017-11-12T00:11:01.213Z,930.06
2017-11-12T00:12:01.212Z,930.02
2017-11-12T00:13:01.210Z,930.06
2017-11-12T00:14:01.210Z,930.07
2017-11-12T00:15:01.204Z,930.08
2017-11-12T00:16:01.203Z,930.03
2017-11-12T00:17:01.200Z,930.07
2017-11-12T00:18:01.202Z,930.06
2017-11-12T00:19:01.246Z,930.05
2017-11-12T00:20:01.192Z,930.00
2017-11-12T00:21:01.192Z,930.04
2017-11-12T00:22:01.191Z,930.08
2017-11-12T00:23:01.185Z,929.97
2017-11-12T00:24:01.183Z,929.97
2017-11-12T00:25:01.179Z,929.94
2017-11-12T00:26:01.229Z,929.85
2017-11-12T00:27:01.176Z,929.89
2017-11-12T00:28:01.173Z,929.87
2017-11-12T00:29:01.170Z,929.87
2017-11-12T00:30:01.168Z,929.92
2017-11-12T00:31:01.166Z,929.90
2017-11-12T00:32:01.163Z,929.88
2017-11-12T00:33:01.210Z,929.89
2017-11-12T00:34:01.159Z,929.87
2017-11-12T00:35:01.155Z,929.90
2017-11-12T00:36:01.154Z,929.92
2017-11-12T00:37:01.152Z,929.85
2017-11-12T00:38:01.147Z,929.87
2017-11-12T00:39:01.149Z,929.87
2017-11-12T00:40:01.142Z,929.85
2017-11-12T00:41:01.142Z,929.84
2017-11-12T00:42:01.142Z,929.86
2017-11-12T00:43:01.135Z,929.87
2017-11-12T00:44:01.133Z,929.91
2017-11-12T00:45:01.132Z,929.86
2017-11-12T00:46:01.131Z,929.91
2017-11-12T00:47:01.125Z,929.91
2017-11-12T00:48:01.124Z,929.88
2017-11-12T00:49:01.121Z,929.79
2017-11-12T00:50:01.119Z,929.84
2017-11-12T00:51:01.116Z,929.80
2017-11-12T00:52:01.112Z,929.81
2017-11-12T00:53:01.112Z,929.76
2017-11-12T00:54:01.108Z,929.80
2017-11-12T00:55:01.106Z,929.83
2017-11-12T00:56:01.101Z,929.78
2017-11-12T00:57:01.100Z,929.73
2017-11-12T00:58:01.099Z,929.72
2017-11-12T00:59:01.095Z,929.74
2017-11-12T01:00:01.092Z,929.73
2017-11-12T01:01:01.090Z,929.75
2017-11-12T01:02:01.088Z,929.65
2017-11-12T01:03:01.088Z,929.74
2017-11-12T01:04:01.082Z,929.68
2017-11-12T01:05:01.080Z,929.68
2017-11-12T01:06:01.077Z,929.75
2017-11-12T01:07:01.073Z,929.78
2017-11-12T01:08:01.072Z,929.66
2017-11-12T01:09:01.070Z,929.78
2017-11-12T01:10:01.067Z,929.73
2017-11-12T01:11:01.064Z,929.78
2017-11-12T01:12:01.062Z,929.76
2017-11-12T01:13:01.059Z,929.76
2017-11-12T01:14:01.056Z,929.72
2017-11-12T01:15:01.054Z,929.68
2017-11-12T01:16:01.051Z,929.68
2017-11-12T01:17:01.048Z,929.71
2017-11-12T01:18:01.097Z,929.70
2017-11-12T01:19:01.044Z,929.71
2017-11-12T01:20:01.067Z,929.62
2017-11-12T01:21:01.038Z,929.74
2017-11-12T01:22:01.035Z,929.70
2017-11-12T01:23:01.032Z,929.73
2017-11-12T01:24:01.029Z,929.67
2017-11-12T01:25:01.028Z,929.65
2017-11-12T01:26:01.026Z,929.63
2017-11-12T01:28:01.020Z,929.63
2017-11-12T01:29:01.016Z,929.62
2017-11-12T01:30:01.015Z,929.65
2017-11-12T01:31:01.010Z,929.60
2017-11-12T01:32:01.008Z,929.61
2017-11-12T01:33:01.007Z,929.54
2017-11-12T01:34:01.006Z,929.60
2017-11-12T01:35:01.000Z,929.62
2017-11-12T01:36:00.998Z,929.55
2017-11-12T01:37:00.997Z,929.58
2017-11-12T01:38:00.993Z,929.56
2017-11-12T01:39:00.989Z,929.57
2017-11-12T01:40:00.987Z,929.64
2017-11-12T01:41:00.986Z,929.55
2017-11-12T01:42:00.983Z,929.62
2017-11-12T01:43:00.981Z,929.60
2017-11-12T01:44:00.979Z,929.64
2017-11-12T01:45:00.975Z,929.65
2017-11-12T01:46:00.973Z,929.59
2017-11-12T01:47:00.971Z,929.49
2017-11-12T01:48:00.967Z,929.52
2017-11-12T01:49:00.964Z,929.54
2017-11-12T01:50:01.013Z,929.50
2017-11-12T01:51:00.958Z,929.50
2017-11-12T01:52:00.955Z,929.53
2017-11-12T01:53:00.953Z,929.56
2017-11-12T01:54:00.951Z,929.52
2017-11-12T01:55:00.947Z,929.55
2017-11-12T01:56:00.947Z,929.53
2017-11-12T01:57:00.943Z,929.42
2017-11-12T01:58:00.940Z,929.55
2017-11-12T01:59:00.938Z,929.46
2017-11-12T02:00:00.937Z,929.48
2017-11-12T02:01:00.934Z,929.42
2017-11-12T02:02:00.931Z,929.41
2017-11-12T02:03:00.926Z,929.41
2017-11-12T02:04:00.924Z,929.42
2017-11-12T02:05:00.923Z,929.47
2017-11-12T02:06:00.970Z,929.45
2017-11-12T02:07:00.917Z,929.41
2017-11-12T02:08:00.913Z,929.42
2017-11-12T02:09:00.912Z,929.41
2017-11-12T02:10:00.910Z,929.48
2017-11-12T02:11:00.905Z,929.42
2017-11-12T02:12:00.903Z,929.30
2017-11-12T02:13:00.901Z,929.42
2017-11-12T02:14:00.898Z,929.42
2017-11-12T02:15:00.895Z,929.38
2017-11-12T02:16:00.893Z,929.31
2017-11-12T02:17:00.896Z,929.30
2017-11-12T02:18:00.887Z,929.26
2017-11-12T02:19:00.884Z,929.27
2017-11-12T02:20:00.881Z,929.22
2017-11-12T02:21:00.882Z,929.20
2017-11-12T02:22:00.876Z,929.28
2017-11-12T02:23:00.872Z,929.26
2017-11-12T02:24:00.870Z,929.21
2017-11-12T02:25:00.869Z,929.11
2017-11-12T02:26:00.866Z,929.16
2017-11-12T02:27:00.911Z,929.18
2017-11-12T02:28:00.864Z,929.11
2017-11-12T02:29:00.857Z,929.24
2017-11-12T02:30:00.855Z,929.19
2017-11-12T02:31:00.851Z,929.19
2017-11-12T02:32:00.848Z,929.18
2017-11-12T02:33:00.845Z,929.21
2017-11-12T02:34:00.844Z,929.11
2017-11-12T02:35:00.840Z,929.16
2017-11-12T02:36:00.846Z,929.18
2017-11-12T02:37:00.836Z,929.10
2017-11-12T02:38:00.831Z,929.14
2017-11-12T02:39:00.829Z,929.18
2017-11-12T02:40:00.826Z,929.15
2017-11-12T02:41:00.825Z,929.08
2017-11-12T02:42:00.823Z,929.20
2017-11-12T02:43:00.816Z,929.22
2017-11-12T02:44:00.814Z,929.20
2017-11-12T02:45:00.812Z,929.18
2017-11-12T02:46:00.811Z,929.18
2017-11-12T02:47:00.807Z,929.20
2017-11-12T02:48:00.805Z,929.14
2017-11-12T02:49:00.802Z,929.18
2017-11-12T02:50:00.800Z,929.21
2017-11-12T02:51:00.794Z,929.27
2017-11-12T02:52:00.793Z,929.18
2017-11-12T02:53:00.790Z,929.23
2017-11-12T02:54:00.788Z,929.22
2017-11-12T02:55:00.785Z,929.22
2017-11-12T02:56:00.833Z,929.22
2017-11-12T02:57:00.779Z,929.13
2017-11-12T02:58:00.777Z,929.20
2017-11-12T02:59:00.775Z,929.20
2017-11-12T03:00:00.772Z,929.23
2017-11-12T03:01:00.818Z,929.15
2017-11-12T03:02:00.765Z,929.13
2017-11-12T03:03:00.762Z,929.13
2017-11-12T03:04:00.759Z,929.10
2017-11-12T03:05:00.757Z,929.13
2017-11-12T03:06:00.756Z,929.02
2017-11-12T03:07:00.752Z,928.98
2017-11-12T03:08:00.750Z,928.97
2017-11-12T03:09:00.751Z,928.96
2017-11-12T03:10:00.746Z,928.92
2017-11-12T03:11:00.741Z,928.89
2017-11-12T03:12:00.737Z,928.89
2017-11-12T03:13:00.735Z,928.84
2017-11-12T03:14:00.735Z,928.77
2017-11-12T03:15:00.730Z,928.74
2017-11-12T03:16:00.726Z,928.72
2017-11-12T03:17:00.730Z,928.73
2017-11-12T03:18:00.722Z,928.69
2017-11-12T03:19:00.720Z,928.71
2017-11-12T03:20:00.717Z,928.72
2017-11-12T03:21:00.713Z,928.56
2017-11-12T03:22:00.711Z,928.64
2017-11-12T03:23:00.708Z,928.54
2017-11-12T03:24:00.707Z,928.49
2017-11-12T03:25:00.703Z,928.50
2017-11-12T03:26:00.701Z,928.55
2017-11-12T03:27:00.697Z,928.51
2017-11-12T03:28:00.695Z,928.47
2017-11-12T03:29:00.707Z,928.47
2017-11-12T03:30:00.689Z,928.48
2017-11-12T03:31:00.687Z,928.44
2017-11-12T03:32:00.684Z,928.55
2017-11-12T03:33:00.680Z,928.45
2017-11-12T03:34:00.679Z,928.42
2017-11-12T03:35:00.674Z,928.37
2017-11-12T03:36:00.672Z,928.35
2017-11-12T03:37:00.673Z,928.30
2017-11-12T03:38:00.666Z,928.34
2017-11-12T03:39:00.663Z,928.40
2017-11-12T03:40:00.661Z,928.37
2017-11-12T03:41:00.659Z,928.33
2017-11-12T03:42:00.656Z,928.26
2017-11-12T03:43:00.653Z,928.29
2017-11-12T03:44:00.649Z,928.29
2017-11-12T03:45:00.646Z,928.22
2017-11-12T03:46:00.643Z,928.30
2017-11-12T03:47:00.641Z,928.21
2017-11-12T03:48:00.638Z,928.21
2017-11-12T03:49:00.636Z,928.25
2017-11-12T03:50:00.634Z,928.23
2017-11-12T03:51:00.629Z,928.22
2017-11-12T03:52:00.626Z,928.19
2017-11-12T03:53:00.623Z,928.18
2017-11-12T03:54:00.621Z,928.18
2017-11-12T03:55:00.618Z,928.18
2017-11-12T03:56:00.616Z,928.23
2017-11-12T03:57:00.621Z,928.16
2017-11-12T03:58:00.611Z,928.13
2017-11-12T03:59:00.608Z,928.12
2017-11-12T04:00:00.605Z,928.12
2017-11-12T04:01:00.602Z,928.11
2017-11-12T04:02:00.599Z,928.04
2017-11-12T04:03:00.597Z,928.06
2017-11-12T04:04:00.593Z,928.09
2017-11-12T04:05:00.590Z,928.09
2017-11-12T04:06:00.588Z,928.04
2017-11-12T04:07:00.583Z,928.06
2017-11-12T04:08:00.582Z,927.97
2017-11-12T04:09:00.580Z,927.97
2017-11-12T04:10:00.576Z,927.95
2017-11-12T04:11:00.572Z,927.93
2017-11-12T04:12:00.570Z,928.00
2017-11-12T04:13:00.572Z,927.94
2017-11-12T04:14:00.578Z,927.95
2017-11-12T04:15:00.563Z,927.95
2017-11-12T04:16:00.658Z,927.99
2017-11-12T04:17:00.555Z,928.00
2017-11-12T04:18:00.553Z,928.00
2017-11-12T04:19:00.551Z,928.02
2017-11-12T04:20:00.547Z,928.03
2017-11-12T04:21:00.544Z,928.04
2017-11-12T04:22:00.545Z,928.07
2017-11-12T04:23:00.539Z,928.04
2017-11-12T04:24:00.535Z,928.01
2017-11-12T04:25:00.536Z,928.02
2017-11-12T04:26:00.531Z,928.00
2017-11-12T04:27:00.526Z,928.00
2017-11-12T04:28:00.524Z,928.02
2017-11-12T04:29:00.526Z,927.95
2017-11-12T04:30:00.524Z,928.00
2017-11-12T04:31:00.515Z,928.00
2017-11-12T04:32:00.513Z,927.96
2017-11-12T04:33:00.511Z,928.00
2017-11-12T04:34:00.560Z,928.00
2017-11-12T04:35:00.503Z,928.02
2017-11-12T04:36:00.501Z,928.02
2017-11-12T04:37:00.548Z,928.08
2017-11-12T04:38:00.496Z,928.08
2017-11-12T04:39:00.493Z,928.04
2017-11-12T04:40:00.491Z,928.03
2017-11-12T04:41:00.487Z,927.99
2017-11-12T04:42:00.484Z,928.05
2017-11-12T04:43:00.482Z,928.02
2017-11-12T04:44:00.484Z,928.00
2017-11-12T04:45:00.477Z,927.99
2017-11-12T04:46:00.525Z,928.01
2017-11-12T04:47:00.470Z,927.99
2017-11-12T04:48:00.467Z,927.97
2017-11-12T04:49:00.465Z,927.95
2017-11-12T04:50:00.464Z,927.95
2017-11-12T04:51:00.458Z,928.03
2017-11-12T04:52:00.506Z,927.92
2017-11-12T04:53:00.454Z,928.02
2017-11-12T04:54:00.452Z,927.98
2017-11-12T04:55:00.447Z,927.87
2017-11-12T04:56:00.445Z,927.79
2017-11-12T04:57:00.442Z,927.86
2017-11-12T04:58:00.439Z,927.85
2017-11-12T04:59:00.436Z,927.84
2017-11-12T05:00:00.433Z,927.80
2017-11-12T05:01:00.430Z,927.82
2017-11-12T05:02:00.428Z,927.84
2017-11-12T05:03:00.423Z,927.75
2017-11-12T05:04:00.422Z,927.73
2017-11-12T05:05:00.423Z,927.72
2017-11-12T05:06:00.419Z,927.72
2017-11-12T05:07:00.414Z,927.75
2017-11-12T05:08:00.417Z,927.72
2017-11-12T05:09:00.408Z,927.70
2017-11-12T05:10:00.410Z,927.69
2017-11-12T05:11:00.401Z,927.65
2017-11-12T05:12:00.399Z,927.63
2017-11-12T05:13:00.412Z,927.69
2017-11-12T05:14:00.393Z,927.64
2017-11-12T05:15:00.390Z,927.56
2017-11-12T05:16:00.388Z,927.64
2017-11-12T05:17:00.386Z,927.60
2017-11-12T05:18:00.381Z,927.56
2017-11-12T05:19:00.378Z,927.59
2017-11-12T05:20:00.375Z,927.58
2017-11-12T05:21:00.374Z,927.57
2017-11-12T05:22:00.372Z,927.57
2017-11-12T05:23:00.367Z,927.56
2017-11-12T05:24:00.365Z,927.55
2017-11-12T05:25:00.412Z,927.58
2017-11-12T05:26:00.359Z,927.57
2017-11-12T05:27:00.356Z,927.50
2017-11-12T05:28:00.357Z,927.53
2017-11-12T05:29:00.350Z,927.45
2017-11-12T05:30:00.349Z,927.43
2017-11-12T05:31:00.345Z,927.43
2017-11-12T05:32:00.342Z,927.37
2017-11-12T05:33:00.338Z,927.36
2017-11-12T05:34:00.336Z,927.37
2017-11-12T05:35:00.335Z,927.35
2017-11-12T05:36:00.332Z,927.26
2017-11-12T05:37:00.328Z,927.24
2017-11-12T05:38:00.325Z,927.27
2017-11-12T05:39:00.323Z,927.25
2017-11-12T05:40:00.320Z,927.22
2017-11-12T05:41:00.317Z,927.19
2017-11-12T05:42:00.314Z,927.21
2017-11-12T05:43:00.312Z,927.19
2017-11-12T05:44:00.309Z,927.18
2017-11-12T05:45:00.306Z,927.22
2017-11-12T05:46:00.304Z,927.20
2017-11-12T05:47:00.300Z,927.21
2017-11-12T05:48:00.297Z,927.14
2017-11-12T05:49:00.297Z,927.11
2017-11-12T05:50:00.293Z,927.12
2017-11-12T05:51:00.289Z,927.15
2017-11-12T05:52:00.286Z,927.17
2017-11-12T05:53:00.284Z,927.15
2017-11-12T05:54:00.283Z,927.12
2017-11-12T05:55:00.277Z,927.15
2017-11-12T05:56:00.276Z,927.13
2017-11-12T05:57:00.272Z,927.11
2017-11-12T05:58:00.269Z,927.10
2017-11-12T05:59:00.266Z,927.13
2017-11-12T06:00:00.264Z,927.08
2017-11-12T06:01:00.272Z,927.09
2017-11-12T06:02:00.258Z,927.09
2017-11-12T06:03:00.254Z,927.12
2017-11-12T06:04:00.251Z,927.07
2017-11-12T06:05:00.249Z,927.14
2017-11-12T06:06:00.246Z,927.13
2017-11-12T06:07:00.294Z,927.14
2017-11-12T06:08:00.240Z,927.14
2017-11-12T06:09:00.241Z,927.10
2017-11-12T06:10:00.235Z,927.10
2017-11-12T06:11:00.230Z,927.14
2017-11-12T06:12:00.231Z,927.11
2017-11-12T06:13:00.228Z,927.10
2017-11-12T06:14:00.224Z,927.10
2017-11-12T06:15:00.220Z,927.02
2017-11-12T06:16:00.219Z,927.02
2017-11-12T06:17:00.216Z,926.97
2017-11-12T06:18:00.213Z,926.95
2017-11-12T06:19:00.209Z,926.94
2017-11-12T06:20:00.206Z,926.93
2017-11-12T06:21:00.205Z,926.90
2017-11-12T06:22:00.202Z,926.89
2017-11-12T06:23:00.198Z,926.95
2017-11-12T06:24:00.196Z,926.98
2017-11-12T06:25:00.194Z,926.98
2017-11-12T06:26:00.191Z,926.89
2017-11-12T06:27:00.188Z,926.85
2017-11-12T06:28:00.185Z,926.87
2017-11-12T06:29:00.183Z,926.89
2017-11-12T06:30:00.180Z,926.91
2017-11-12T06:31:00.177Z,926.95
2017-11-12T06:32:00.175Z,926.90
2017-11-12T06:33:00.172Z,926.92
2017-11-12T06:34:00.219Z,926.90
2017-11-12T06:35:00.166Z,926.88
2017-11-12T06:36:00.164Z,926.90
2017-11-12T06:37:00.162Z,926.90
2017-11-12T06:38:00.160Z,926.94
2017-11-12T06:39:00.157Z,926.86
2017-11-12T06:40:00.153Z,926.79
2017-11-12T06:41:00.155Z,926.91
2017-11-12T06:42:00.156Z,926.98
2017-11-12T06:43:00.145Z,926.99
2017-11-12T06:44:00.143Z,927.00
2017-11-12T06:45:00.142Z,927.02
2017-11-12T06:46:00.138Z,926.98
2017-11-12T06:47:00.231Z,926.96
2017-11-12T06:48:00.133Z,927.03
2017-11-12T06:49:00.130Z,927.03
2017-11-12T06:50:00.133Z,926.98
2017-11-12T06:51:00.125Z,926.95
2017-11-12T06:52:00.125Z,926.98
2017-11-12T06:53:00.120Z,926.96
2017-11-12T06:54:00.117Z,926.90
2017-11-12T06:55:00.114Z,926.96
2017-11-12T06:56:00.162Z,926.97
2017-11-12T06:57:00.109Z,926.91
2017-11-12T06:58:00.106Z,926.98
2017-11-12T06:59:00.103Z,927.11
2017-11-12T07:00:00.102Z,927.07
2017-11-12T07:01:00.098Z,927.01
2017-11-12T07:02:00.097Z,926.96
2017-11-12T07:03:00.092Z,927.06
2017-11-12T07:04:00.090Z,927.11
2017-11-12T07:05:00.088Z,927.09
2017-11-12T07:06:00.085Z,927.13
2017-11-12T07:07:00.082Z,927.13
2017-11-12T07:08:00.080Z,927.20
2017-11-12T07:09:00.078Z,927.23
2017-11-12T07:10:00.075Z,927.19
2017-11-12T07:11:00.072Z,927.20
2017-11-12T07:12:00.119Z,927.22
2017-11-12T07:13:00.067Z,927.24
2017-11-12T07:14:00.064Z,927.25
2017-11-12T07:15:00.112Z,927.26
2017-11-12T07:16:00.059Z,927.32
2017-11-12T07:17:00.057Z,927.32
2017-11-12T07:18:00.058Z,927.32
2017-11-12T07:19:00.051Z,927.36
2017-11-12T07:20:00.047Z,927.36
2017-11-12T07:21:00.044Z,927.31
2017-11-12T07:22:00.042Z,927.33
2017-11-12T07:23:00.039Z,927.32
2017-11-12T07:24:00.037Z,927.34
2017-11-12T07:25:00.033Z,927.37
2017-11-12T07:26:00.031Z,927.30
2017-11-12T07:27:00.077Z,927.26
2017-11-12T07:28:00.024Z,927.22
2017-11-12T07:29:00.028Z,927.21
2017-11-12T07:30:00.023Z,927.26
2017-11-12T07:31:00.014Z,927.33
2017-11-12T07:32:00.313Z,927.25
2017-11-12T07:33:00.008Z,927.20
2017-11-12T07:34:00.009Z,927.08
2017-11-12T07:35:00.051Z,927.18
2017-11-12T07:36:00.013Z,927.21
2017-11-12T07:37:00.246Z,927.24
2017-11-12T07:37:59.992Z,927.27
2017-11-12T07:38:59.988Z,927.21
2017-11-12T07:39:59.984Z,927.14
2017-11-12T07:40:59.982Z,927.09
2017-11-12T07:41:59.982Z,927.09
2017-11-12T07:42:59.975Z,927.14
2017-11-12T07:43:59.972Z,927.12
2017-11-12T07:44:59.969Z,927.10
2017-11-12T07:45:59.966Z,927.11
2017-11-12T07:46:59.962Z,927.14
2017-11-12T07:47:59.959Z,927.12
2017-11-12T07:48:59.963Z,927.15
2017-11-12T07:49:59.953Z,927.16
2017-11-12T07:50:59.949Z,927.16
2017-11-12T07:51:59.945Z,927.09
2017-11-12T07:52:59.942Z,927.02
2017-11-12T07:53:59.940Z,927.00
2017-11-12T07:54:59.934Z,926.98
2017-11-12T07:55:59.937Z,926.93
2017-11-12T07:56:59.928Z,926.92
2017-11-12T07:57:59.927Z,926.92
2017-11-12T07:58:59.921Z,926.91
2017-11-12T07:59:59.920Z,926.87
2017-11-12T08:00:59.914Z,926.88
2017-11-12T08:01:59.912Z,926.83
2017-11-12T08:02:59.907Z,926.71
2017-11-12T08:03:59.905Z,926.70
2017-11-12T08:04:59.901Z,926.83
2017-11-12T08:05:59.898Z,926.88
2017-11-12T08:06:59.893Z,926.88
2017-11-12T08:07:59.890Z,926.81
2017-11-12T08:08:59.888Z,926.80
2017-11-12T08:09:59.883Z,926.85
2017-11-12T08:10:59.881Z,926.81
2017-11-12T08:11:59.883Z,926.79
2017-11-12T08:12:59.873Z,926.76
2017-11-12T08:13:59.870Z,926.74
2017-11-12T08:14:59.867Z,926.73
2017-11-12T08:15:59.864Z,926.72
2017-11-12T08:16:59.861Z,926.70
2017-11-12T08:17:59.857Z,926.69
2017-11-12T08:18:59.853Z,926.66
2017-11-12T08:19:59.851Z,926.63
2017-11-12T08:20:59.847Z,926.61
2017-11-12T08:21:59.844Z,926.57
2017-11-12T08:22:59.840Z,926.54
2017-11-12T08:23:59.836Z,926.56
2017-11-12T08:24:59.833Z,926.62
2017-11-12T08:25:59.838Z,926.58
2017-11-12T08:26:59.826Z,926.42
2017-11-12T08:27:59.824Z,926.35
2017-11-12T08:28:59.822Z,926.31
2017-11-12T08:29:59.818Z,926.32
2017-11-12T08:30:59.815Z,926.26
2017-11-12T08:31:59.811Z,926.28
2017-11-12T08:32:59.808Z,926.26
2017-11-12T08:33:59.806Z,926.27
2017-11-12T08:34:59.805Z,926.17
2017-11-12T08:35:59.801Z,926.20
2017-11-12T08:36:59.794Z,926.20
2017-11-12T08:37:59.794Z,926.20
2017-11-12T08:38:59.788Z,926.15
2017-11-12T08:39:59.787Z,926.17
2017-11-12T08:40:59.785Z,926.18
2017-11-12T08:41:59.780Z,926.07
2017-11-12T08:42:59.777Z,926.00
2017-11-12T08:43:59.774Z,925.99
2017-11-12T08:44:59.772Z,925.97
2017-11-12T08:45:59.818Z,925.94
2017-11-12T08:46:59.763Z,925.84
2017-11-12T08:47:59.762Z,925.82
2017-11-12T08:48:59.764Z,925.82
2017-11-12T08:49:59.757Z,925.84
2017-11-12T08:50:59.755Z,925.82
2017-11-12T08:51:59.751Z,925.80
2017-11-12T08:52:59.747Z,925.72
2017-11-12T08:53:59.756Z,925.70
2017-11-12T08:54:59.741Z,925.61
2017-11-12T08:55:59.739Z,925.64
2017-11-12T08:56:59.737Z,925.61
2017-11-12T08:57:59.734Z,925.62
2017-11-12T08:58:59.729Z,925.62
2017-11-12T08:59:59.726Z,925.60
2017-11-12T09:00:59.725Z,925.61
2017-11-12T09:01:59.720Z,925.61
2017-11-12T09:02:59.718Z,925.53
2017-11-12T09:03:59.716Z,925.47
2017-11-12T09:04:59.713Z,925.45
2017-11-12T09:05:59.711Z,925.47
2017-11-12T09:06:59.708Z,925.49
2017-11-12T09:07:59.703Z,925.43
2017-11-12T09:08:59.701Z,925.42
2017-11-12T09:09:59.699Z,925.43
2017-11-12T09:10:59.696Z,925.37
2017-11-12T09:11:59.692Z,925.40
2017-11-12T09:12:59.689Z,925.38
2017-11-12T09:13:59.688Z,925.30
2017-11-12T09:14:59.685Z,925.26
2017-11-12T09:15:59.681Z,925.30
2017-11-12T09:16:59.678Z,925.33
2017-11-12T09:17:59.676Z,925.35
2017-11-12T09:18:59.672Z,925.27
2017-11-12T09:19:59.670Z,925.25
2017-11-12T09:20:59.668Z,925.22
2017-11-12T09:21:59.666Z,925.22
2017-11-12T09:22:59.661Z,925.25
2017-11-12T09:23:59.709Z,925.22
2017-11-12T09:24:59.656Z,925.17
2017-11-12T09:25:59.653Z,925.15
2017-11-12T09:26:59.650Z,925.15
2017-11-12T09:27:59.646Z,925.10
2017-11-12T09:28:59.644Z,925.13
2017-11-12T09:29:59.643Z,925.17
2017-11-12T09:30:59.638Z,925.13
2017-11-12T09:31:59.637Z,925.09
2017-11-12T09:32:59.635Z,925.11
2017-11-12T09:33:59.632Z,925.08
2017-11-12T09:34:59.631Z,925.02
2017-11-12T09:35:59.676Z,925.06
2017-11-12T09:36:59.622Z,925.07
2017-11-12T09:37:59.623Z,925.08
2017-11-12T09:38:59.667Z,925.07
2017-11-12T09:39:59.614Z,925.03
2017-11-12T09:40:59.611Z,924.94
2017-11-12T09:41:59.609Z,925.00
2017-11-12T09:42:59.604Z,925.01
2017-11-12T09:43:59.602Z,924.99
2017-11-12T09:44:59.600Z,924.89
2017-11-12T09:45:59.598Z,924.75
2017-11-12T09:46:59.594Z,924.70
2017-11-12T09:47:59.592Z,924.69
2017-11-12T09:48:59.590Z,924.73
2017-11-12T09:49:59.586Z,924.69
2017-11-12T09:50:59.590Z,924.68
2017-11-12T09:51:59.586Z,924.64
2017-11-12T09:52:59.579Z,924.62
2017-11-12T09:53:59.575Z,924.60
2017-11-12T09:54:59.572Z,924.58
2017-11-12T09:55:59.571Z,924.57
2017-11-12T09:56:59.567Z,924.40
2017-11-12T09:57:59.564Z,924.37
2017-11-12T09:58:59.561Z,924.30
2017-11-12T09:59:59.559Z,924.28
2017-11-12T10:00:59.557Z,924.24
2017-11-12T10:01:59.554Z,924.20
2017-11-12T10:02:59.550Z,924.18
2017-11-12T10:03:59.548Z,924.12
2017-11-12T10:04:59.572Z,924.12
2017-11-12T10:05:59.543Z,924.11
2017-11-12T10:06:59.540Z,924.08
2017-11-12T10:07:59.537Z,924.06
2017-11-12T10:08:59.535Z,924.01
2017-11-12T10:09:59.533Z,923.98
2017-11-12T10:10:59.530Z,923.94
2017-11-12T10:11:59.527Z,923.92
2017-11-12T10:12:59.522Z,923.88
2017-11-12T10:13:59.521Z,923.84
2017-11-12T10:14:59.518Z,923.82
2017-11-12T10:15:59.522Z,923.81
2017-11-12T10:16:59.515Z,923.78
2017-11-12T10:17:59.510Z,923.76
2017-11-12T10:18:59.515Z,923.74
2017-11-12T10:19:59.506Z,923.75
2017-11-12T10:20:59.504Z,923.71
2017-11-12T10:21:59.501Z,923.68
2017-11-12T10:22:59.498Z,923.64
2017-11-12T10:23:59.496Z,923.62
2017-11-12T10:24:59.494Z,923.53
2017-11-12T10:25:59.492Z,923.54
2017-11-12T10:26:59.489Z,923.50
2017-11-12T10:27:59.488Z,923.48
2017-11-12T10:28:59.486Z,923.45
2017-11-12T10:29:59.483Z,923.43
2017-11-12T10:30:59.480Z,923.43
2017-11-12T10:31:59.481Z,923.37
2017-11-12T10:32:59.477Z,923.34
2017-11-12T10:33:59.476Z,923.31
2017-11-12T10:34:59.473Z,923.27
2017-11-12T10:35:59.471Z,923.28
2017-11-12T10:36:59.471Z,923.21
2017-11-12T10:37:59.468Z,923.23
2017-11-12T10:38:59.466Z,923.23
2017-11-12T10:39:59.478Z,923.19
2017-11-12T10:40:59.464Z,923.18
2017-11-12T10:41:59.463Z,923.12
2017-11-12T10:42:59.461Z,923.13
2017-11-12T10:43:59.460Z,923.11
2017-11-12T10:44:59.460Z,923.09
2017-11-12T10:45:59.460Z,923.08
2017-11-12T10:46:59.458Z,923.09
2017-11-12T10:47:59.460Z,923.05
2017-11-12T10:48:59.458Z,923.01
2017-11-12T10:49:59.457Z,922.98
2017-11-12T10:50:59.456Z,922.97
2017-11-12T10:51:59.455Z,922.99
2017-11-12T10:52:59.454Z,922.97
2017-11-12T10:53:59.453Z,922.89
2017-11-12T10:54:59.452Z,922.87
2017-11-12T10:55:59.451Z,922.84
2017-11-12T10:56:59.452Z,922.77
2017-11-12T10:57:59.450Z,922.77
2017-11-12T10:58:59.450Z,922.73
2017-11-12T10:59:59.449Z,922.73
2017-11-12T11:00:59.499Z,922.64
2017-11-12T11:01:59.448Z,922.60
2017-11-12T11:02:59.449Z,922.61
2017-11-12T11:03:59.447Z,922.64
2017-11-12T11:04:59.447Z,922.60
2017-11-12T11:05:59.445Z,922.58
2017-11-12T11:06:59.451Z,922.54
2017-11-12T11:07:59.443Z,922.55
2017-11-12T11:08:59.443Z,922.51
2017-11-12T11:09:59.443Z,922.54
2017-11-12T11:10:59.441Z,922.50
2017-11-12T11:11:59.441Z,922.46
2017-11-12T11:12:59.441Z,922.41
2017-11-12T11:13:59.441Z,922.39
2017-11-12T11:14:59.438Z,922.34
2017-11-12T11:15:59.437Z,922.32
2017-11-12T11:16:59.439Z,922.26
2017-11-12T11:17:59.437Z,922.30
2017-11-12T11:18:59.435Z,922.25
2017-11-12T11:19:59.434Z,922.21
2017-11-12T11:20:59.435Z,922.21
2017-11-12T11:21:59.435Z,922.21
2017-11-12T11:22:59.432Z,922.16
2017-11-12T11:23:59.433Z,922.11
2017-11-12T11:24:59.437Z,922.12
2017-11-12T11:25:59.433Z,922.02
2017-11-12T11:26:59.431Z,921.98
2017-11-12T11:27:59.431Z,921.94
2017-11-12T11:28:59.430Z,921.89
2017-11-12T11:29:59.431Z,921.86
2017-11-12T11:30:59.429Z,921.84
2017-11-12T11:31:59.429Z,921.88
2017-11-12T11:32:59.429Z,921.84
2017-11-12T11:33:59.429Z,921.85
2017-11-12T11:34:59.439Z,921.78
2017-11-12T11:35:59.428Z,921.75
2017-11-12T11:36:59.429Z,921.73
2017-11-12T11:37:59.430Z,921.74
2017-11-12T11:38:59.479Z,921.70
2017-11-12T11:39:59.436Z,921.68
2017-11-12T11:40:59.432Z,921.64
2017-11-12T11:41:59.429Z,921.63
2017-11-12T11:42:59.428Z,921.58
2017-11-12T11:43:59.429Z,921.54
2017-11-12T11:44:59.429Z,921.52
2017-11-12T11:45:59.429Z,921.46
2017-11-12T11:46:59.429Z,921.42
2017-11-12T11:47:59.430Z,921.36
2017-11-12T11:48:59.428Z,921.33
2017-11-12T11:49:59.430Z,921.27
2017-11-12T11:50:59.429Z,921.24
2017-11-12T11:51:59.431Z,921.25
2017-11-12T11:52:59.428Z,921.20
2017-11-12T11:53:59.428Z,921.23
2017-11-12T11:54:59.428Z,921.21
2017-11-12T11:55:59.428Z,921.20
2017-11-12T11:56:59.428Z,921.19
2017-11-12T11:57:59.428Z,921.18
2017-11-12T11:58:59.426Z,921.14
2017-11-12T11:59:59.427Z,921.11
2017-11-12T12:00:59.426Z,921.10
2017-11-12T12:01:59.427Z,921.06
2017-11-12T12:02:59.425Z,921.06
2017-11-12T12:03:59.433Z,921.06
2017-11-12T12:04:59.425Z,921.06
2017-11-12T12:05:59.424Z,921.05
2017-11-12T12:06:59.423Z,921.02
2017-11-12T12:07:59.422Z,921.03
2017-11-12T12:08:59.422Z,921.00
2017-11-12T12:09:59.431Z,920.99
2017-11-12T12:10:59.423Z,921.01
2017-11-12T12:11:59.422Z,920.98
2017-11-12T12:12:59.422Z,921.00
2017-11-12T12:13:59.423Z,920.98
2017-11-12T12:14:59.420Z,920.94
2017-11-12T12:15:59.420Z,920.94
2017-11-12T12:16:59.420Z,920.94
2017-11-12T12:17:59.420Z,920.93
2017-11-12T12:18:59.419Z,920.93
2017-11-12T12:19:59.419Z,920.99
2017-11-12T12:20:59.419Z,920.96
2017-11-12T12:21:59.421Z,920.94
2017-11-12T12:22:59.418Z,920.87
2017-11-12T12:23:59.418Z,920.89
2017-11-12T12:24:59.417Z,920.88
2017-11-12T12:25:59.416Z,920.87
2017-11-12T12:26:59.416Z,920.80
2017-11-12T12:27:59.413Z,920.79
2017-11-12T12:28:59.464Z,920.76